Time;durP1;ratioP1;P1;durP2;ratioP2;P2;SDS_P1;SDS_P2;PMS_P1;PMS_P2;Temp;Humidity;BMP_temperature;BMP_pressure;BME280_temperature;BME280_humidity;BME280_pressure;Samples;Min_cycle;Max_cycle;Signal;HPM_P1;HPM_P2
2022/05/09 00:00:15;;;;;;;21.90;11.95;;;;;;;13.74;100.00;101046.78;4955268;29;20082;-85
2022/05/09 00:02:41;;;;;;;21.25;12.98;;;;;;;13.71;100.00;101050.59;4955418;29;20431;-86
2022/05/09 00:05:08;;;;;;;22.98;11.98;;;;;;;13.76;100.00;101055.41;4955022;28;20039;-86
2022/05/09 00:07:33;;;;;;;17.55;13.02;;;;;;;13.91;100.00;101057.22;4955151;29;20518;-87
2022/05/09 00:10:00;;;;;;;21.02;12.48;;;;;;;14.08;100.00;101062.50;4954917;28;20150;-84
2022/05/09 00:12:26;;;;;;;19.02;12.68;;;;;;;14.11;100.00;101048.84;4973557;28;20058;-86
2022/05/09 00:14:52;;;;;;;24.35;12.98;;;;;;;13.85;100.00;101051.75;4974537;28;20035;-85
2022/05/09 00:17:18;;;;;;;17.33;12.43;;;;;;;13.70;100.00;101043.59;4974421;28;20046;-84
2022/05/09 00:19:44;;;;;;;23.23;12.70;;;;;;;13.78;100.00;101048.94;4974438;28;20042;-86
2022/05/09 00:22:10;;;;;;;20.08;12.48;;;;;;;13.94;100.00;101051.56;4974242;28;20489;-86
2022/05/09 00:24:36;;;;;;;14.80;11.45;;;;;;;14.06;100.00;101048.50;4974555;28;20057;-86
2022/05/09 00:27:02;;;;;;;20.95;12.48;;;;;;;13.97;100.00;101045.88;4974377;28;20078;-85
2022/05/09 00:29:28;;;;;;;15.90;12.15;;;;;;;13.94;100.00;101048.88;4974539;28;20070;-84
2022/05/09 00:31:57;;;;;;;15.75;12.27;;;;;;;13.86;100.00;101043.56;4974226;28;20066;-85
2022/05/09 00:34:24;;;;;;;18.00;12.27;;;;;;;14.04;100.00;101045.19;4957242;28;20118;-83
2022/05/09 00:36:52;;;;;;;23.17;13.02;;;;;;;14.06;100.00;101043.16;4974199;28;20022;-84
2022/05/09 00:39:19;;;;;;;18.42;12.18;;;;;;;14.06;100.00;101040.50;4973822;28;20223;-85
2022/05/09 00:41:45;;;;;;;20.45;12.68;;;;;;;14.07;100.00;101042.19;4973947;28;20035;-85
2022/05/09 00:44:21;;;;;;;20.40;12.43;;;;;;;14.13;100.00;101037.00;4973928;28;20074;-84
2022/05/09 00:46:50;;;;;;;21.95;13.27;;;;;;;13.97;100.00;101045.88;4974182;28;20073;-85
2022/05/09 00:49:22;;;;;;;23.05;13.50;;;;;;;13.69;100.00;101038.44;4974046;28;20831;-85
2022/05/09 00:52:13;;;;;;;22.63;12.63;;;;;;;13.73;100.00;101034.44;4973871;28;20031;-84
2022/05/09 00:54:47;;;;;;;18.00;12.90;;;;;;;13.61;100.00;101038.47;4966338;28;20051;-84
2022/05/09 00:57:23;;;;;;;21.15;12.98;;;;;;;13.40;100.00;101041.66;4974071;28;20140;-86
2022/05/09 00:59:52;;;;;;;20.30;13.50;;;;;;;13.28;100.00;101040.34;4982104;28;20127;-85
2022/05/09 01:02:20;;;;;;;21.77;14.50;;;;;;;13.16;100.00;101028.34;4983503;28;20039;-82
2022/05/09 01:04:54;;;;;;;20.40;14.23;;;;;;;13.11;100.00;101036.00;4974417;28;20390;-84
2022/05/09 01:07:22;;;;;;;19.77;14.40;;;;;;;13.07;100.00;101046.09;4974030;28;20038;-83
2022/05/09 01:09:47;;;;;;;19.00;14.25;;;;;;;13.22;100.00;101038.34;4974423;28;20041;-84
2022/05/09 01:12:20;;;;;;;25.00;15.43;;;;;;;13.24;100.00;101044.31;4973713;28;20117;-84
2022/05/09 01:14:46;;;;;;;18.90;13.32;;;;;;;13.29;100.00;101039.34;4973947;28;20070;-84
2022/05/09 01:17:13;;;;;;;20.77;13.52;;;;;;;13.26;100.00;101044.97;4974250;28;20058;-84
2022/05/09 01:19:42;;;;;;;20.83;14.55;;;;;;;13.23;100.00;101046.16;4977364;28;20039;-85
2022/05/09 01:22:29;;;;;;;17.77;13.57;;;;;;;13.32;100.00;101050.47;4977355;28;20069;-86
2022/05/09 01:25:02;;;;;;;21.80;12.77;;;;;;;13.41;100.00;101053.97;4977397;28;20031;-85
2022/05/09 01:27:27;;;;;;;22.55;13.40;;;;;;;13.49;100.00;101056.59;4977256;28;20066;-85
2022/05/09 01:30:01;;;;;;;20.08;13.18;;;;;;;13.48;100.00;101059.47;4959949;28;20031;-84
2022/05/09 01:32:35;;;;;;;20.10;12.60;;;;;;;13.41;100.00;101065.47;4977473;28;20034;-83
2022/05/09 01:35:19;;;;;;;18.10;12.85;;;;;;;13.49;100.00;101064.59;4976906;28;20110;-84
2022/05/09 01:37:52;;;;;;;18.70;12.38;;;;;;;13.34;100.00;101066.28;4977097;28;20042;-85
2022/05/09 01:40:18;;;;;;;21.75;14.05;;;;;;;13.18;100.00;101066.28;4977460;28;20545;-86
2022/05/09 01:42:43;;;;;;;20.80;13.50;;;;;;;13.30;100.00;101070.25;4977018;28;20135;-85
2022/05/09 01:45:12;;;;;;;18.42;12.60;;;;;;;13.27;100.00;101062.63;4977015;28;20065;-84
2022/05/09 01:50:23;;;;;;;18.33;13.57;;;;;;;13.11;100.00;101073.25;4977192;28;20058;-85
2022/05/09 01:52:49;;;;;;;25.08;13.23;;;;;;;13.12;100.00;101072.28;4977126;28;20035;-84
2022/05/09 01:55:18;;;;;;;21.02;14.18;;;;;;;12.90;100.00;101066.53;4977562;28;20529;-85
2022/05/09 01:57:43;;;;;;;17.88;13.65;;;;;;;12.89;100.00;101075.50;4999046;28;20123;-87
2022/05/09 02:00:09;;;;;;;17.25;13.10;;;;;;;12.96;100.00;101073.88;4994680;28;20043;-85
2022/05/09 02:02:40;;;;;;;18.05;13.02;;;;;;;13.13;100.00;101074.75;4990020;28;20453;-86
2022/05/09 02:05:06;;;;;;;22.00;13.52;;;;;;;13.18;100.00;101074.25;4988774;28;20054;-84
2022/05/09 02:07:32;;;;;;;18.27;13.88;;;;;;;13.28;100.00;101074.94;4986058;28;20085;-86
2022/05/09 02:09:57;;;;;;;19.63;12.90;;;;;;;13.35;100.00;101075.94;4978180;28;20046;-85
2022/05/09 02:12:24;;;;;;;20.67;13.95;;;;;;;13.29;100.00;101079.28;4976859;28;20085;-85
2022/05/09 02:14:51;;;;;;;18.80;13.88;;;;;;;13.40;100.00;101078.91;4979184;28;20093;-85
2022/05/09 02:17:17;;;;;;;24.52;14.07;;;;;;;13.40;100.00;101081.59;4976836;28;20034;-85
2022/05/09 02:19:43;;;;;;;21.02;14.40;;;;;;;13.32;100.00;101076.28;4976382;28;20485;-86
2022/05/09 02:22:10;;;;;;;22.02;13.77;;;;;;;13.31;100.00;101079.94;4976241;28;20050;-86
2022/05/09 02:24:36;;;;;;;18.85;13.73;;;;;;;13.37;100.00;101079.25;4976289;28;20102;-85
2022/05/09 02:27:01;;;;;;;21.00;13.63;;;;;;;13.24;100.00;101078.91;4958844;28;20046;-84
2022/05/09 02:29:28;;;;;;;21.60;14.02;;;;;;;13.27;100.00;101081.25;4975974;28;20039;-86
2022/05/09 02:31:55;;;;;;;22.55;13.70;;;;;;;13.39;100.00;101085.25;4976101;28;20066;-84
2022/05/09 02:34:21;;;;;;;22.25;13.98;;;;;;;13.24;100.00;101084.25;4976338;28;20110;-85
2022/05/09 02:36:47;;;;;;;20.25;14.32;;;;;;;13.24;100.00;101085.09;4976033;28;20058;-84
2022/05/09 02:39:13;;;;;;;18.92;14.30;;;;;;;13.12;100.00;101078.44;4975725;28;20034;-86
2022/05/09 02:41:39;;;;;;;19.90;13.35;;;;;;;13.20;100.00;101073.09;4975863;28;20049;-84
2022/05/09 02:44:05;;;;;;;20.08;13.85;;;;;;;13.15;100.00;101077.25;4975908;28;20043;-86
2022/05/09 02:46:30;;;;;;;22.50;13.38;;;;;;;13.17;100.00;101073.44;4975847;28;20042;-84
2022/05/09 02:48:59;;;;;;;18.83;13.38;;;;;;;13.27;100.00;101067.94;4975575;28;20035;-85
2022/05/09 02:51:26;;;;;;;19.35;14.20;;;;;;;13.23;100.00;101067.44;4975620;28;20159;-84
2022/05/09 02:53:52;;;;;;;20.90;14.00;;;;;;;13.26;100.00;101072.44;4975777;28;20113;-85
2022/05/09 02:56:17;;;;;;;24.35;12.93;;;;;;;13.29;100.00;101076.63;4975739;28;20478;-84
2022/05/09 02:58:43;;;;;;;20.02;14.35;;;;;;;13.21;100.00;101079.25;4975597;28;20085;-85
2022/05/09 03:01:08;;;;;;;16.88;13.32;;;;;;;13.23;100.00;101077.25;4975323;28;20043;-86
2022/05/09 03:06:18;;;;;;;19.25;14.02;;;;;;;13.09;100.00;101091.22;4975503;28;20031;-84
2022/05/09 03:08:44;;;;;;;24.35;15.57;;;;;;;13.06;100.00;101096.84;4975817;28;20130;-84
2022/05/09 03:11:10;;;;;;;25.10;15.00;;;;;;;13.00;100.00;101092.16;4975628;28;20481;-85
2022/05/09 03:13:36;;;;;;;25.52;15.25;;;;;;;12.86;100.00;101099.78;4975422;28;20479;-87
2022/05/09 03:16:02;;;;;;;21.15;15.98;;;;;;;12.74;100.00;101095.78;4975289;28;20030;-87
2022/05/09 03:18:28;;;;;;;19.75;15.02;;;;;;;12.78;100.00;101093.63;4975278;28;20389;-84
2022/05/09 03:20:54;;;;;;;20.08;15.23;;;;;;;12.75;100.00;101112.56;4975444;28;20042;-85
2022/05/09 03:23:20;;;;;;;23.02;15.65;;;;;;;12.95;100.00;101111.28;4975166;28;20035;-83
2022/05/09 03:25:46;;;;;;;27.75;16.08;;;;;;;12.87;100.00;101105.94;4975146;28;20482;-83
2022/05/09 03:28:14;;;;;;;31.38;15.27;;;;;;;12.94;100.00;101105.13;4975134;28;20134;-83
2022/05/09 03:30:46;;;;;;;23.98;15.60;;;;;;;13.05;100.00;101105.81;4974833;28;20074;-84
2022/05/09 03:33:13;;;;;;;20.70;15.75;;;;;;;12.93;100.00;101103.47;4974768;28;20050;-84
2022/05/09 03:35:39;;;;;;;21.35;14.85;;;;;;;13.10;100.00;101108.84;4974610;28;20051;-83
2022/05/09 03:38:05;;;;;;;22.63;15.38;;;;;;;13.06;100.00;101108.31;4976018;28;20073;-82
2022/05/09 03:40:30;;;;;;;24.50;14.90;;;;;;;13.22;100.00;101112.88;4958568;28;20454;-86
2022/05/09 03:42:59;;;;;;;22.85;16.63;;;;;;;13.29;100.00;101116.53;4981432;28;20057;-83
2022/05/09 03:45:25;;;;;;;22.50;15.95;;;;;;;13.39;100.00;101109.19;4979143;28;20041;-84
2022/05/09 03:47:51;;;;;;;23.05;15.23;;;;;;;13.35;100.00;101111.38;4979492;28;20046;-83
2022/05/09 03:50:18;;;;;;;22.00;16.08;;;;;;;13.16;100.00;101102.84;4977982;28;20026;-83
2022/05/09 03:52:44;;;;;;;22.50;15.60;;;;;;;13.11;100.00;101123.81;4978719;28;20058;-82
2022/05/09 03:55:10;;;;;;;25.83;17.10;;;;;;;12.95;100.00;101117.44;4975625;28;20093;-82
2022/05/09 03:57:54;;;;;;;23.92;17.20;;;;;;;12.92;100.00;101112.47;4975862;28;20042;-80
2022/05/09 04:00:23;;;;;;;28.83;17.98;;;;;;;12.85;100.00;101122.09;4974490;28;20050;-83
2022/05/09 04:02:48;;;;;;;26.67;16.58;;;;;;;12.82;100.00;101117.09;4957407;28;20203;-84
2022/05/09 04:05:17;;;;;;;23.73;16.17;;;;;;;12.92;100.00;101112.47;4974758;28;20038;-84
2022/05/09 04:07:49;;;;;;;23.80;14.88;;;;;;;12.98;100.00;101116.28;4974756;28;20042;-83
2022/05/09 04:10:18;;;;;;;23.95;16.25;;;;;;;12.90;100.00;101116.25;4975114;28;20034;-84
2022/05/09 04:12:44;;;;;;;27.27;15.73;;;;;;;12.98;100.00;101110.13;4975007;28;20050;-81
2022/05/09 04:17:55;;;;;;;29.50;16.55;;;;;;;13.03;100.00;101108.63;4976041;28;20039;-83
2022/05/09 04:20:22;;;;;;;25.00;16.45;;;;;;;13.20;100.00;101115.69;4974235;28;20045;-84
2022/05/09 04:22:48;;;;;;;25.63;16.50;;;;;;;13.31;100.00;101119.84;4974465;28;20027;-82
2022/05/09 04:25:19;;;;;;;26.67;16.42;;;;;;;13.38;100.00;101121.72;4974189;28;20054;-82
2022/05/09 04:27:45;;;;;;;23.92;16.05;;;;;;;13.52;100.00;101114.88;4973991;28;20039;-85
2022/05/09 04:30:12;;;;;;;26.50;17.10;;;;;;;13.64;100.00;101118.88;4974146;28;20039;-82
2022/05/09 04:32:39;;;;;;;24.83;16.60;;;;;;;13.74;100.00;101122.19;4974772;28;20093;-84
2022/05/09 04:35:05;;;;;;;27.27;15.60;;;;;;;13.88;100.00;101126.00;4974573;28;20123;-83
2022/05/09 04:37:32;;;;;;;25.80;15.27;;;;;;;13.98;100.00;101122.16;4974465;28;20058;-83
2022/05/09 04:39:59;;;;;;;23.33;16.42;;;;;;;14.00;100.00;101129.97;4974252;28;20034;-81
2022/05/09 04:42:24;;;;;;;32.67;15.75;;;;;;;14.07;100.00;101124.81;4974447;28;20397;-83
2022/05/09 04:44:50;;;;;;;26.33;16.05;;;;;;;14.03;100.00;101124.31;4974662;28;20039;-85
2022/05/09 04:47:16;;;;;;;27.23;16.00;;;;;;;14.09;100.00;101130.78;4975302;28;20127;-85
2022/05/09 04:49:41;;;;;;;24.75;15.98;;;;;;;13.97;100.00;101130.31;4964512;28;20038;-85
2022/05/09 04:52:07;;;;;;;27.73;15.77;;;;;;;14.05;100.00;101132.97;4939489;29;20043;-83
2022/05/09 04:54:32;;;;;;;24.30;15.80;;;;;;;14.28;100.00;101133.09;4960025;29;20395;-83
2022/05/09 04:56:58;;;;;;;26.15;15.90;;;;;;;14.37;100.00;101132.94;4962925;29;20039;-83
2022/05/09 04:59:24;;;;;;;22.65;16.52;;;;;;;14.44;100.00;101138.41;4964818;29;20127;-82
2022/05/09 05:01:50;;;;;;;21.63;16.15;;;;;;;14.48;100.00;101139.72;4968958;28;20046;-81
2022/05/09 05:04:17;;;;;;;22.88;16.35;;;;;;;14.42;100.00;101145.72;4985314;28;20031;-80
2022/05/09 05:06:44;;;;;;;25.17;16.60;;;;;;;14.44;100.00;101143.75;4977336;28;20038;-82
2022/05/09 05:09:10;;;;;;;30.38;16.60;;;;;;;14.43;100.00;101158.06;4977213;28;20035;-81
2022/05/09 05:11:37;;;;;;;23.00;16.63;;;;;;;14.35;100.00;101150.09;4979713;28;20070;-82
2022/05/09 05:14:02;;;;;;;25.38;16.55;;;;;;;14.50;100.00;101159.06;4974906;28;20035;-80
2022/05/09 05:19:16;;;;;;;27.42;15.68;;;;;;;14.86;100.00;101162.06;4960645;28;20035;-81
2022/05/09 05:21:42;;;;;;;25.83;15.75;;;;;;;15.01;100.00;101169.16;4952708;28;20524;-82
2022/05/09 05:24:08;;;;;;;27.50;16.70;;;;;;;15.02;100.00;101168.16;4976298;28;20494;-80
2022/05/09 05:26:34;;;;;;;25.98;16.33;;;;;;;15.28;100.00;101169.69;4980628;28;20109;-82
2022/05/09 05:29:00;;;;;;;24.73;16.80;;;;;;;15.28;100.00;101165.16;4979433;28;20109;-81
2022/05/09 05:31:25;;;;;;;21.83;15.07;;;;;;;15.55;100.00;101171.00;4943536;29;20039;-81
2022/05/09 05:33:51;;;;;;;23.42;15.80;;;;;;;15.72;100.00;101173.38;4958583;29;20493;-80
2022/05/09 05:36:18;;;;;;;19.73;14.50;;;;;;;15.95;100.00;101174.19;4958648;29;20426;-81
2022/05/09 05:38:44;;;;;;;24.08;15.98;;;;;;;16.17;100.00;101185.88;4959017;29;20039;-82
2022/05/09 05:41:10;;;;;;;22.88;15.15;;;;;;;16.46;100.00;101174.34;4958486;29;20046;-80
2022/05/09 05:43:35;;;;;;;26.98;15.60;;;;;;;16.73;100.00;101181.75;4958276;29;20031;-80
2022/05/09 05:46:02;;;;;;;20.55;14.75;;;;;;;16.98;100.00;101191.13;4964393;28;20034;-79
2022/05/09 05:48:28;;;;;;;20.70;14.30;;;;;;;17.40;100.00;101190.38;4977946;28;20050;-81
2022/05/09 05:50:53;;;;;;;22.73;14.60;;;;;;;17.58;100.00;101197.19;4960170;28;20043;-83
2022/05/09 05:53:19;;;;;;;27.73;15.45;;;;;;;17.78;100.00;101196.34;4975110;28;20502;-79
2022/05/09 05:55:45;;;;;;;24.73;13.98;;;;;;;18.45;100.00;101198.53;4994611;28;20449;-79
2022/05/09 05:58:10;;;;;;;21.33;13.40;;;;;;;19.31;100.00;101206.00;4995290;28;20165;-81
2022/05/09 06:00:36;;;;;;;21.48;13.27;;;;;;;19.71;100.00;101206.09;4995849;28;20038;-81
2022/05/09 06:03:02;;;;;;;19.30;12.40;;;;;;;20.05;100.00;101214.81;4995717;28;20107;-82
2022/05/09 06:05:28;;;;;;;17.48;12.52;;;;;;;20.78;100.00;101212.84;4995754;28;20444;-80
2022/05/09 06:07:55;;;;;;;19.75;12.38;;;;;;;20.95;100.00;101214.06;4996155;28;20477;-80
2022/05/09 06:10:21;;;;;;;23.33;12.35;;;;;;;21.09;100.00;101209.44;4995952;28;20060;-81
2022/05/09 06:12:47;;;;;;;30.30;13.93;;;;;;;20.70;100.00;101217.66;4996344;28;20038;-82
2022/05/09 06:15:31;;;;;;;18.10;13.27;;;;;;;20.86;100.00;101215.34;4996802;28;20572;-81
2022/05/09 06:17:59;;;;;;;20.33;14.38;;;;;;;21.26;100.00;101217.91;4996202;28;20460;-81
2022/05/09 06:20:26;;;;;;;20.10;14.07;;;;;;;21.59;100.00;101218.53;4996199;28;20466;-81
2022/05/09 06:22:54;;;;;;;22.20;14.88;;;;;;;21.76;99.75;101219.69;4996265;28;20050;-80
2022/05/09 06:25:21;;;;;;;27.58;15.20;;;;;;;21.14;100.00;101217.75;4996436;28;20034;-80
2022/05/09 06:27:47;;;;;;;23.05;15.82;;;;;;;20.86;100.00;101226.13;4996247;28;20045;-80
2022/05/09 06:30:15;;;;;;;29.67;15.80;;;;;;;21.47;100.00;101222.97;4997270;28;20072;-84
2022/05/09 06:32:42;;;;;;;34.85;16.00;;;;;;;21.06;100.00;101221.47;4980929;28;20080;-82
2022/05/09 06:35:10;;;;;;;23.42;15.10;;;;;;;21.49;100.00;101228.97;4996299;28;20437;-80
2022/05/09 06:37:38;;;;;;;26.55;16.70;;;;;;;21.37;98.46;101241.50;4995543;28;20038;-80
2022/05/09 06:40:06;;;;;;;26.10;15.77;;;;;;;21.67;99.86;101229.09;4995919;28;20088;-82
2022/05/09 06:42:31;;;;;;;31.25;15.00;;;;;;;21.77;97.95;101240.22;4999124;28;20556;-81
2022/05/09 06:44:57;;;;;;;29.70;15.75;;;;;;;22.19;94.48;101245.94;4999170;28;20065;-80
2022/05/09 06:47:23;;;;;;;24.55;14.75;;;;;;;23.02;91.15;101239.94;5006115;28;20035;-82
2022/05/09 06:49:48;;;;;;;25.83;15.75;;;;;;;22.56;92.52;101245.00;4999326;28;20401;-80
2022/05/09 06:52:14;;;;;;;25.20;15.93;;;;;;;22.88;92.94;101251.94;4996494;28;20078;-82
2022/05/09 06:54:39;;;;;;;25.08;15.15;;;;;;;23.23;88.98;101244.06;4995550;28;20034;-81
2022/05/09 06:57:05;;;;;;;27.98;16.20;;;;;;;23.17;89.87;101240.38;4995941;28;20089;-82
2022/05/09 06:59:32;;;;;;;20.83;15.13;;;;;;;23.57;88.16;101250.69;4995648;28;20413;-80
2022/05/09 07:01:58;;;;;;;25.52;15.48;;;;;;;23.38;88.63;101246.34;4978252;28;20089;-82
2022/05/09 07:04:24;;;;;;;26.77;14.90;;;;;;;23.22;88.06;101250.50;4993772;28;20039;-82
2022/05/09 07:06:49;;;;;;;28.23;15.63;;;;;;;23.45;86.22;101249.81;4974975;28;20129;-81
2022/05/09 07:09:15;;;;;;;26.85;15.75;;;;;;;23.52;86.53;101253.28;4978461;28;20034;-79
2022/05/09 07:11:42;;;;;;;24.42;15.70;;;;;;;23.58;85.08;101257.75;4977187;28;20031;-79
2022/05/09 07:14:08;;;;;;;24.00;15.73;;;;;;;23.59;83.62;101259.41;4974468;28;20050;-80
2022/05/09 07:16:33;;;;;;;22.20;13.63;;;;;;;24.06;82.20;101255.78;4975919;28;20046;-79
2022/05/09 07:18:59;;;;;;;20.70;14.68;;;;;;;23.73;83.37;101252.75;4976172;28;20039;-80
2022/05/09 07:21:26;;;;;;;25.55;14.82;;;;;;;23.94;80.96;101257.63;4975970;28;20043;-80
2022/05/09 07:23:51;;;;;;;22.25;14.73;;;;;;;23.97;80.67;101259.88;4974667;28;20042;-80
2022/05/09 07:26:17;;;;;;;20.10;14.35;;;;;;;23.63;82.71;101260.63;4976581;28;20035;-79
2022/05/09 07:28:42;;;;;;;24.23;15.38;;;;;;;23.83;81.75;101266.53;4980721;28;20019;-80
2022/05/09 07:31:09;;;;;;;21.88;13.68;;;;;;;24.07;78.16;101265.56;4977893;28;20056;-80
2022/05/09 07:33:36;;;;;;;17.98;13.20;;;;;;;23.99;75.69;101265.06;4974230;28;20404;-88
2022/05/09 07:36:03;;;;;;;26.70;14.40;;;;;;;22.84;82.16;101271.53;4975642;28;20113;-79
2022/05/09 07:38:29;;;;;;;18.33;14.25;;;;;;;21.85;87.00;101261.53;4973419;28;20026;-83
2022/05/09 07:40:54;;;;;;;22.15;14.73;;;;;;;21.85;88.91;101266.94;4974937;28;20031;-80
2022/05/09 07:43:24;;;;;;;20.23;14.30;;;;;;;21.81;88.36;101265.72;4972814;28;20037;-80
2022/05/09 07:45:52;;;;;;;24.08;15.00;;;;;;;21.98;91.23;101266.03;4975196;28;20114;-79
2022/05/09 07:48:21;;;;;;;23.25;14.98;;;;;;;22.35;88.76;101261.59;4975088;28;20433;-83
2022/05/09 07:50:48;;;;;;;16.42;13.02;;;;;;;22.42;83.24;101270.47;4967130;28;20174;-81
2022/05/09 07:53:21;;;;;;;22.40;12.35;;;;;;;22.13;87.44;101275.50;4966740;28;20125;-82
2022/05/09 07:55:48;;;;;;;15.00;10.98;;;;;;;22.87;85.00;101265.72;4947970;28;20482;-87
2022/05/09 07:58:17;;;;;;;17.83;11.35;;;;;;;23.38;78.68;101262.56;4964327;28;20023;-83
2022/05/09 08:00:45;;;;;;;20.75;13.60;;;;;;;23.54;82.55;101275.50;4972536;28;20141;-81
2022/05/09 08:03:23;;;;;;;17.50;12.77;;;;;;;23.05;87.63;101271.09;4975197;28;20031;-84
2022/05/09 08:05:56;;;;;;;19.27;12.93;;;;;;;22.95;86.80;101273.50;4943437;28;20069;-81
2022/05/09 08:08:22;;;;;;;25.17;13.32;;;;;;;22.09;87.19;101270.75;4975350;28;20027;-82
2022/05/09 08:10:48;;;;;;;22.80;12.80;;;;;;;21.78;91.57;101268.84;4981753;28;20458;-79
2022/05/09 08:13:18;;;;;;;19.15;12.65;;;;;;;22.12;85.84;101278.41;4978012;28;20031;-78
2022/05/09 08:15:46;;;;;;;18.98;13.27;;;;;;;22.21;85.49;101273.53;4977282;28;20030;-79
2022/05/09 08:18:16;;;;;;;21.75;12.73;;;;;;;21.60;85.17;101274.16;4982808;28;20102;-81
2022/05/09 08:20:45;;;;;;;21.30;12.50;;;;;;;22.40;84.00;101276.13;4980637;28;20050;-80
2022/05/09 08:23:13;;;;;;;13.98;10.73;;;;;;;23.02;83.83;101272.38;4973885;28;20047;-82
2022/05/09 08:25:42;;;;;;;16.65;12.25;;;;;;;23.67;78.39;101278.84;4955456;29;20039;-83
2022/05/09 08:28:08;;;;;;;15.75;10.10;;;;;;;24.71;75.62;101274.72;4970080;28;20035;-85
2022/05/09 08:30:34;;;;;;;17.63;11.00;;;;;;;25.27;71.74;101279.47;4974467;28;20031;-80
2022/05/09 08:33:05;;;;;;;14.65;10.75;;;;;;;25.42;71.90;101278.97;4973426;28;20034;-81
2022/05/09 08:35:31;;;;;;;17.30;11.75;;;;;;;25.56;68.76;101277.63;4956407;28;20515;-80
2022/05/09 08:37:57;;;;;;;13.35;10.75;;;;;;;26.38;69.30;101283.47;4974382;28;20089;-84
2022/05/09 08:40:53;;;;;;;21.63;12.25;;;;;;;26.27;67.64;101281.66;4974490;28;20027;-79
2022/05/09 08:43:37;;;;;;;16.73;12.18;;;;;;;26.43;65.91;101281.63;4971829;28;20049;-79
2022/05/09 08:46:14;;;;;;;16.40;12.40;;;;;;;25.92;65.68;101276.41;4974453;28;20456;-82
2022/05/09 08:49:11;;;;;;;17.73;12.70;;;;;;;25.32;69.57;101281.47;4974374;28;20489;-81
2022/05/09 08:51:45;;;;;;;15.90;11.70;;;;;;;25.69;69.24;101277.34;4895949;29;20147;-87
2022/05/09 08:54:19;;;;;;;14.60;9.40;;;;;;;26.33;61.60;101280.66;4895348;29;20489;-86
2022/05/09 08:56:46;;;;;;;15.85;10.75;;;;;;;26.20;61.73;101284.53;4895593;29;20044;-80
2022/05/09 08:59:23;;;;;;;19.33;11.35;;;;;;;26.12;62.42;101293.88;4895698;29;20032;-79
2022/05/09 09:01:55;;;;;;;19.27;10.98;;;;;;;25.47;66.43;101279.06;4891694;28;20110;-82
2022/05/09 09:04:24;;;;;;;15.23;10.18;;;;;;;25.91;67.81;101281.03;4971562;28;20117;-79
2022/05/09 09:07:08;;;;;;;16.58;10.23;;;;;;;26.30;64.53;101278.44;4974325;28;20039;-80
2022/05/09 09:10:02;;;;;;;13.10;10.43;;;;;;;25.40;65.76;101281.06;4957195;28;20043;-83
2022/05/09 09:12:37;;;;;;;11.73;9.40;;;;;;;25.73;65.18;101283.09;4968043;28;20043;-81
2022/05/09 09:15:17;;;;;;;19.90;10.50;;;;;;;25.65;64.92;101281.63;4971662;28;20511;-81
2022/05/09 09:18:01;;;;;;;12.80;9.30;;;;;;;25.77;65.70;101290.53;4973934;28;20394;-82
2022/05/09 09:20:40;;;;;;;18.00;9.98;;;;;;;26.83;62.76;101283.34;4973862;28;20035;-86
2022/05/09 09:23:39;;;;;;;17.02;10.25;;;;;;;26.71;60.29;101292.38;4971357;28;20512;-81
2022/05/09 09:26:20;;;;;;;11.07;7.18;;;;;;;26.47;59.16;101290.13;4955252;29;20058;-80
2022/05/09 09:29:10;;;;;;;12.43;8.10;;;;;;;27.14;57.68;101283.50;4957670;28;20486;-86
2022/05/09 09:31:46;;;;;;;13.38;7.10;;;;;;;27.32;52.77;101292.41;4974618;28;20050;-82
2022/05/09 09:34:29;;;;;;;12.00;6.45;;;;;;;26.91;53.26;101291.91;4974092;28;20030;-85
2022/05/09 09:37:01;;;;;;;10.88;6.32;;;;;;;26.63;55.13;101289.28;4974418;28;20123;-88
2022/05/09 09:39:33;;;;;;;12.32;8.18;;;;;;;26.56;58.04;101288.63;4977390;28;20039;-86
2022/05/09 09:41:59;;;;;;;14.82;8.70;;;;;;;26.46;57.43;101285.75;4977285;28;20043;-86
2022/05/09 09:44:27;;;;;;;19.23;9.68;;;;;;;25.93;59.80;101289.72;4974769;28;20038;-85
2022/05/09 09:47:18;;;;;;;15.05;9.50;;;;;;;25.79;60.80;101282.94;4977696;28;20557;-90
2022/05/09 09:49:45;;;;;;;13.03;8.70;;;;;;;26.30;60.50;101283.88;4977647;28;20043;-79
2022/05/09 09:52:29;;;;;;;15.35;7.05;;;;;;;26.79;53.60;101282.16;4960062;28;20393;-83
2022/05/09 09:55:04;;;;;;;10.93;6.40;;;;;;;26.17;55.44;101280.41;4974684;28;20039;-80
2022/05/09 09:57:35;;;;;;;18.80;7.18;;;;;;;26.04;55.11;101280.69;4977510;28;20047;-80
2022/05/09 10:00:17;;;;;;;10.25;6.53;;;;;;;26.04;54.82;101286.13;4977201;28;20042;-79
2022/05/09 10:02:49;;;;;;;13.60;6.22;;;;;;;25.41;57.30;101280.03;4976554;28;20042;-82
2022/05/09 10:05:30;;;;;;;10.75;6.18;;;;;;;26.30;55.15;101279.25;4977182;28;20087;-80
2022/05/09 10:07:55;;;;;;;10.88;5.88;;;;;;;26.27;54.83;101277.03;4977556;28;20039;-82
2022/05/09 10:10:23;;;;;;;11.63;5.65;;;;;;;26.39;52.81;101275.03;4977005;28;20033;-80
2022/05/09 10:12:53;;;;;;;13.05;6.00;;;;;;;26.46;54.80;101277.59;4977611;28;20039;-82
2022/05/09 10:15:40;;;;;;;8.68;5.95;;;;;;;26.67;53.19;101265.97;4977748;28;20066;-78
2022/05/09 10:18:33;;;;;;;11.60;5.75;;;;;;;26.88;52.42;101278.78;4977336;28;20359;-80
2022/05/09 10:21:10;;;;;;;12.40;5.38;;;;;;;26.77;52.17;101268.81;4973615;28;20059;-81
2022/05/09 10:26:52;;;;;;;;;;;;;;;26.87;52.45;101260.00;4925239;28;20043;-80
2022/05/09 10:29:18;;;;;;;11.52;6.72;;;;;;;27.20;52.43;101255.28;4984877;28;19918;-81
2022/05/09 10:31:49;;;;;;;16.35;6.45;;;;;;;27.27;53.08;101255.09;4983248;28;20031;-80
2022/05/09 10:34:22;;;;;;;16.45;6.70;;;;;;;27.49;52.05;101247.72;4975498;28;20058;-81
2022/05/09 10:36:58;;;;;;;12.48;6.30;;;;;;;27.88;52.55;101248.38;4976375;28;20031;-82
2022/05/09 10:39:51;;;;;;;11.90;7.55;;;;;;;27.73;51.29;101246.34;4978206;28;20035;-84
2022/05/09 10:42:23;;;;;;;13.50;6.72;;;;;;;27.62;50.46;101238.31;4964918;28;20395;-84
2022/05/09 10:45:01;;;;;;;12.73;7.40;;;;;;;27.74;50.42;101245.25;4973800;28;20042;-82
2022/05/09 10:47:37;;;;;;;13.18;6.45;;;;;;;27.41;52.07;101233.72;4959591;28;20043;-82
2022/05/09 10:50:25;;;;;;;9.30;5.25;;;;;;;27.64;47.77;101238.91;4974743;28;20089;-81
2022/05/09 10:53:12;;;;;;;14.55;5.53;;;;;;;27.00;46.57;101235.97;4958781;28;20047;-84
2022/05/09 10:56:02;;;;;;;13.43;6.22;;;;;;;26.25;51.07;101232.16;4977999;28;20401;-84
2022/05/09 10:58:51;;;;;;;8.45;5.50;;;;;;;26.89;52.17;101228.75;4977209;28;20039;-82
2022/05/09 11:01:20;;;;;;;7.93;5.82;;;;;;;26.44;51.54;101228.94;4976949;28;20034;-84
2022/05/09 11:03:46;;;;;;;12.05;6.03;;;;;;;26.74;50.61;101220.38;4977452;28;20035;-82
2022/05/09 11:06:37;;;;;;;10.88;6.40;;;;;;;27.28;49.89;101225.97;4977947;28;20026;-83
2022/05/09 11:09:23;;;;;;;9.15;4.18;;;;;;;26.70;43.93;101224.66;4979722;28;20046;-88
2022/05/09 11:12:37;;;;;;;9.73;4.97;;;;;;;26.25;46.69;101226.72;4978513;28;20034;-82
2022/05/09 11:15:32;;;;;;;14.85;5.20;;;;;;;26.18;47.01;101219.53;4976567;28;20050;-85
2022/05/09 11:18:23;;;;;;;13.95;6.10;;;;;;;25.71;47.52;101215.47;4994442;28;20097;-83
2022/05/09 11:20:49;;;;;;;11.90;5.72;;;;;;;25.38;51.00;101201.81;4992301;28;20034;-82
2022/05/09 11:23:50;;;;;;;12.18;5.60;;;;;;;25.75;51.00;101207.66;4985714;28;20062;-87
2022/05/09 11:26:27;;;;;;;12.90;5.82;;;;;;;25.61;50.00;101210.69;4978868;28;20042;-81
2022/05/09 11:29:12;;;;;;;9.93;5.57;;;;;;;25.48;50.68;101204.72;4978045;28;20405;-85
2022/05/09 11:31:46;;;;;;;14.60;6.20;;;;;;;25.50;52.64;101194.44;4959720;28;20043;-83
2022/05/09 11:34:38;;;;;;;13.90;7.18;;;;;;;25.70;50.97;101197.53;4975625;28;20027;-81